createdAt,value
2018-07-05T00:01:54.262Z,11.47
2018-07-05T00:04:34.612Z,14.87
2018-07-05T00:07:15.025Z,12.13
2018-07-05T00:09:55.352Z,15.80
2018-07-05T00:12:35.785Z,11.67
2018-07-05T00:15:16.044Z,14.90
2018-07-05T00:17:56.341Z,11.83
2018-07-05T00:20:36.816Z,12.03
2018-07-05T00:23:17.232Z,16.33
2018-07-05T00:25:57.740Z,13.10
2018-07-05T00:28:38.315Z,11.97
2018-07-05T00:31:18.606Z,12.43
2018-07-05T00:33:59.006Z,12.70
2018-07-05T00:36:39.377Z,14.10
2018-07-05T00:39:19.958Z,11.73
2018-07-05T00:42:00.520Z,14.70
2018-07-05T00:44:41.080Z,15.60
2018-07-05T00:47:21.534Z,12.70
2018-07-05T00:50:01.925Z,12.80
2018-07-05T00:52:42.453Z,15.13
2018-07-05T00:55:22.858Z,15.63
2018-07-05T00:58:03.269Z,14.07
2018-07-05T01:00:43.660Z,16.93
2018-07-05T01:03:23.984Z,14.50
2018-07-05T01:06:04.414Z,15.10
2018-07-05T01:08:38.743Z,18.43
2018-07-05T01:11:18.934Z,16.63
2018-07-05T01:13:59.327Z,18.93
2018-07-05T01:16:39.681Z,18.40
2018-07-05T01:19:20.317Z,20.17
2018-07-05T01:22:00.745Z,23.20
2018-07-05T01:24:34.976Z,19.77
2018-07-05T01:27:15.442Z,21.67
2018-07-05T01:29:55.653Z,20.53
2018-07-05T01:32:35.767Z,17.90
2018-07-05T01:35:16.285Z,23.20
2018-07-05T01:37:56.733Z,17.87
2018-07-05T01:40:37.108Z,22.07
2018-07-05T01:43:17.529Z,18.13
2018-07-05T01:45:58.045Z,19.37
2018-07-05T01:48:38.289Z,21.67
2018-07-05T01:51:18.590Z,24.03
2018-07-05T01:53:58.917Z,24.93
2018-07-05T01:56:33.211Z,23.23
2018-07-05T01:59:13.497Z,23.20
2018-07-05T02:01:47.755Z,22.40
2018-07-05T02:04:28.089Z,20.37
2018-07-05T02:07:08.409Z,19.23
2018-07-05T02:09:48.795Z,17.53
2018-07-05T02:12:29.311Z,18.47
2018-07-05T02:15:09.805Z,19.00
2018-07-05T02:17:50.289Z,18.13
2018-07-05T02:20:30.775Z,16.40
2018-07-05T02:23:11.165Z,16.53
2018-07-05T02:25:51.454Z,17.10
2018-07-05T02:28:31.837Z,19.40
2018-07-05T02:31:12.388Z,19.67
2018-07-05T02:33:53.910Z,20.23
2018-07-05T02:36:35.226Z,17.73
2018-07-05T02:39:20.967Z,15.53
2018-07-05T02:42:01.745Z,18.53
2018-07-05T02:44:42.022Z,17.17
2018-07-05T02:47:22.433Z,15.63
2018-07-05T02:50:02.910Z,18.63
2018-07-05T02:52:43.301Z,16.50
2018-07-05T02:55:23.626Z,19.40
2018-07-05T02:58:03.872Z,17.83
2018-07-05T03:00:38.153Z,19.80
2018-07-05T03:03:18.371Z,24.03
2018-07-05T03:05:58.835Z,22.50
2018-07-05T03:08:39.025Z,21.73
2018-07-05T03:11:19.341Z,20.00
2018-07-05T03:14:00.010Z,20.83
2018-07-05T03:16:40.449Z,18.97
2018-07-05T03:19:20.737Z,18.60
2018-07-05T03:22:02.301Z,17.73
2018-07-05T03:24:42.713Z,16.10
2018-07-05T03:27:23.061Z,16.30
2018-07-05T03:30:03.462Z,18.77
2018-07-05T03:32:44.085Z,16.13
2018-07-05T03:35:24.505Z,16.13
2018-07-05T03:38:04.805Z,18.97
2018-07-05T03:40:45.359Z,15.10
2018-07-05T03:43:25.762Z,15.07
2018-07-05T03:46:06.137Z,19.07
2018-07-05T03:48:46.635Z,15.27
2018-07-05T03:51:27.225Z,13.57
2018-07-05T03:54:07.537Z,14.70
2018-07-05T03:56:47.881Z,15.50
2018-07-05T03:59:28.181Z,17.33
2018-07-05T04:02:08.308Z,16.17
2018-07-05T04:04:48.905Z,13.53
2018-07-05T04:07:29.360Z,16.07
2018-07-05T04:10:09.592Z,18.60
2018-07-05T04:12:49.936Z,11.77
2018-07-05T04:15:24.294Z,15.80
2018-07-05T04:18:04.453Z,13.17
2018-07-05T04:20:44.922Z,14.17
2018-07-05T04:23:25.354Z,12.70
2018-07-05T04:26:05.737Z,11.60
2018-07-05T04:28:46.160Z,12.60
2018-07-05T04:31:26.452Z,16.63
2018-07-05T04:34:06.816Z,15.67
2018-07-05T04:36:47.060Z,15.93
2018-07-05T04:39:27.626Z,16.00
2018-07-05T04:42:08.112Z,13.73
2018-07-05T04:44:48.642Z,14.80
2018-07-05T04:47:28.880Z,16.87
2018-07-05T04:50:09.224Z,15.67
2018-07-05T04:52:49.624Z,18.63
2018-07-05T04:55:30.095Z,16.97
2018-07-05T04:58:10.560Z,15.00
2018-07-05T05:00:50.819Z,17.13
2018-07-05T05:03:25.050Z,16.33
2018-07-05T05:06:05.626Z,15.60
2018-07-05T05:08:46.002Z,14.70
2018-07-05T05:11:26.322Z,17.40
2018-07-05T05:14:06.882Z,15.17
2018-07-05T05:16:47.350Z,13.47
2018-07-05T05:19:27.653Z,12.20
2018-07-05T05:22:07.842Z,16.63
2018-07-05T05:24:48.215Z,16.27
2018-07-05T05:27:28.779Z,13.80
2018-07-05T05:30:09.154Z,15.30
2018-07-05T05:32:49.909Z,13.27
2018-07-05T05:35:30.397Z,13.57
2018-07-05T05:38:10.761Z,12.70
2018-07-05T05:40:51.053Z,14.23
2018-07-05T05:43:31.753Z,17.63
2018-07-05T05:46:12.221Z,14.57
2018-07-05T05:48:52.579Z,13.43
2018-07-05T05:51:33.035Z,16.70
2018-07-05T05:54:13.467Z,18.73
2018-07-05T05:56:53.825Z,17.20
2018-07-05T05:59:34.093Z,14.60
2018-07-05T06:02:14.529Z,12.67
2018-07-05T06:05:00.501Z,15.87
2018-07-05T06:07:40.825Z,13.10
2018-07-05T06:10:21.251Z,17.30
2018-07-05T06:13:01.589Z,16.47
2018-07-05T06:15:41.817Z,17.63
2018-07-05T06:18:22.256Z,16.70
2018-07-05T06:21:02.753Z,15.07
2018-07-05T06:23:43.189Z,14.70
2018-07-05T06:26:23.659Z,12.43
2018-07-05T06:29:03.987Z,15.03
2018-07-05T06:31:38.425Z,13.27
2018-07-05T06:34:18.667Z,15.50
2018-07-05T06:36:59.057Z,12.17
2018-07-05T06:39:39.527Z,14.37
2018-07-05T06:42:20.006Z,14.37
2018-07-05T06:45:00.328Z,14.30
2018-07-05T06:47:40.697Z,15.70
2018-07-05T06:50:21.143Z,14.70
2018-07-05T06:53:01.555Z,12.90
2018-07-05T06:55:42.185Z,15.53
2018-07-05T06:58:22.762Z,12.80
2018-07-05T07:01:03.037Z,13.40
2018-07-05T07:03:43.490Z,11.97
2018-07-05T07:06:23.959Z,11.17
2018-07-05T07:09:04.481Z,16.10
2018-07-05T07:11:44.807Z,14.57
2018-07-05T07:14:25.302Z,12.60
2018-07-05T07:17:06.133Z,12.00
2018-07-05T07:19:46.522Z,14.17
2018-07-05T07:22:20.805Z,12.43
2018-07-05T07:25:01.002Z,13.57
2018-07-05T07:27:41.399Z,12.33
2018-07-05T07:30:21.789Z,12.67
2018-07-05T07:33:02.141Z,14.13
2018-07-05T07:35:42.604Z,17.87
2018-07-05T07:38:23.117Z,12.13
2018-07-05T07:41:03.456Z,12.20
2018-07-05T07:43:31.399Z,12.70
2018-07-05T07:45:59.334Z,14.57
2018-07-05T07:48:27.307Z,13.97
2018-07-05T07:50:55.348Z,13.77
2018-07-05T07:53:23.320Z,13.70
2018-07-05T07:55:51.284Z,16.07
2018-07-05T07:58:19.288Z,12.80
2018-07-05T08:00:47.220Z,11.47
2018-07-05T08:03:15.160Z,12.77
2018-07-05T08:05:43.078Z,11.83
2018-07-05T08:08:11.076Z,12.67
2018-07-05T08:10:38.986Z,10.80
2018-07-05T08:13:07.172Z,12.77
2018-07-05T08:15:35.058Z,11.33
2018-07-05T08:18:02.984Z,11.23
2018-07-05T08:20:31.048Z,12.80
2018-07-05T08:22:59.066Z,11.90
2018-07-05T08:25:27.034Z,11.17
2018-07-05T08:27:55.084Z,9.77
2018-07-05T08:30:23.363Z,9.37
2018-07-05T08:32:51.292Z,13.93
2018-07-05T08:35:19.287Z,10.43
2018-07-05T08:37:47.267Z,12.00
2018-07-05T08:40:15.345Z,10.80
2018-07-05T08:42:43.254Z,12.67
2018-07-05T08:45:11.229Z,13.90
2018-07-05T08:47:39.168Z,9.83
2018-07-05T08:50:07.089Z,9.93
2018-07-05T08:52:35.027Z,11.07
2018-07-05T08:55:03.010Z,9.90
2018-07-05T08:57:31.000Z,9.90
2018-07-05T08:59:59.302Z,11.20
2018-07-05T09:02:27.290Z,9.00
2018-07-05T09:04:55.234Z,8.67
2018-07-05T09:07:23.180Z,11.37
2018-07-05T09:09:51.120Z,8.63
2018-07-05T09:12:19.062Z,10.67
2018-07-05T09:14:46.966Z,12.90
2018-07-05T09:17:14.890Z,10.33
2018-07-05T09:19:42.843Z,10.40
2018-07-05T09:22:10.769Z,11.37
2018-07-05T09:24:38.689Z,8.97
2018-07-05T09:27:06.660Z,11.03
2018-07-05T09:29:34.645Z,12.43
2018-07-05T09:32:02.569Z,9.17
2018-07-05T09:34:30.554Z,10.07
2018-07-05T09:36:58.510Z,13.23
2018-07-05T09:39:26.485Z,10.43
2018-07-05T09:41:54.491Z,9.93
2018-07-05T09:44:22.437Z,8.60
2018-07-05T09:46:50.443Z,10.00
2018-07-05T09:49:18.388Z,7.70
2018-07-05T09:51:46.557Z,8.97
2018-07-05T09:54:14.643Z,10.80
2018-07-05T09:56:42.541Z,8.70
2018-07-05T09:59:10.495Z,16.53
2018-07-05T10:01:38.401Z,7.50
2018-07-05T10:04:06.325Z,14.13
2018-07-05T10:06:34.296Z,9.07
2018-07-05T10:09:02.291Z,8.80
2018-07-05T10:11:30.202Z,12.73
2018-07-05T10:13:58.432Z,7.17
2018-07-05T10:16:26.265Z,12.13
2018-07-05T10:18:54.249Z,7.77
2018-07-05T10:21:22.281Z,12.57
2018-07-05T10:23:50.194Z,8.93
2018-07-05T10:26:18.127Z,7.83
2018-07-05T10:28:52.460Z,10.90
2018-07-05T10:31:32.922Z,9.23
2018-07-05T10:34:00.821Z,6.13
2018-07-05T10:36:28.785Z,9.10
2018-07-05T10:38:56.770Z,10.70
2018-07-05T10:41:37.077Z,12.23
2018-07-05T10:44:17.430Z,11.53
2018-07-05T10:46:57.705Z,10.33
2018-07-05T10:49:38.011Z,9.47
2018-07-05T10:52:18.544Z,12.27
2018-07-05T10:57:58.313Z,10.70
2018-07-05T11:00:38.755Z,9.93
2018-07-05T11:03:19.342Z,8.03
2018-07-05T11:05:59.808Z,9.60
2018-07-05T11:08:40.141Z,9.50
2018-07-05T11:11:20.524Z,9.10
2018-07-05T11:14:00.865Z,11.40
2018-07-05T11:16:41.308Z,6.67
2018-07-05T11:19:21.639Z,9.47
2018-07-05T11:22:01.913Z,10.07
2018-07-05T11:24:42.346Z,10.97
2018-07-05T11:27:22.760Z,9.13
2018-07-05T11:30:03.258Z,7.23
2018-07-05T11:32:43.572Z,6.10
2018-07-05T11:35:23.978Z,7.37
2018-07-05T11:38:04.412Z,13.10
2018-07-05T11:40:44.966Z,4.27
2018-07-05T11:43:25.436Z,9.63
2018-07-05T11:46:05.884Z,5.13
2018-07-05T11:48:46.237Z,6.03
2018-07-05T11:51:26.716Z,10.57
2018-07-05T11:54:07.074Z,8.27
2018-07-05T11:56:47.722Z,6.40
2018-07-05T11:59:28.020Z,7.60
2018-07-05T12:02:08.326Z,9.27
2018-07-05T12:04:49.318Z,6.40
2018-07-05T12:07:29.610Z,6.93
2018-07-05T12:10:10.166Z,7.03
2018-07-05T12:12:50.618Z,6.03
2018-07-05T12:15:30.979Z,3.13
2018-07-05T12:18:05.694Z,7.43
2018-07-05T12:20:46.021Z,5.33
2018-07-05T12:23:26.370Z,5.33
2018-07-05T12:26:06.794Z,5.60
2018-07-05T12:28:47.213Z,3.37
2018-07-05T12:31:21.559Z,5.30
2018-07-05T12:34:01.814Z,5.63
2018-07-05T12:36:42.326Z,6.30
2018-07-05T12:39:22.660Z,4.03
2018-07-05T12:42:02.902Z,6.37
2018-07-05T12:44:43.469Z,6.67
2018-07-05T12:47:23.832Z,4.27
2018-07-05T12:50:04.213Z,4.80
2018-07-05T12:52:44.621Z,7.20
2018-07-05T12:55:24.979Z,7.60
2018-07-05T12:58:05.341Z,6.60
2018-07-05T13:00:45.729Z,7.47
2018-07-05T13:03:26.195Z,7.87
2018-07-05T13:06:06.613Z,6.90
2018-07-05T13:08:47.009Z,10.10
2018-07-05T13:11:27.395Z,5.20
2018-07-05T13:14:07.689Z,5.57
2018-07-05T13:16:47.997Z,5.33
2018-07-05T13:19:28.458Z,8.83
2018-07-05T13:22:08.880Z,7.03
2018-07-05T13:24:49.293Z,4.83
2018-07-05T13:27:29.839Z,8.30
2018-07-05T13:30:10.302Z,5.23
2018-07-05T13:32:51.371Z,8.37
2018-07-05T13:35:25.815Z,6.30
2018-07-05T13:38:06.004Z,9.83
2018-07-05T13:40:46.387Z,5.57
2018-07-05T13:43:26.871Z,5.87
2018-07-05T13:46:07.564Z,5.43
2018-07-05T13:48:48.027Z,6.47
2018-07-05T13:51:28.314Z,4.40
2018-07-05T13:54:09.448Z,5.73
2018-07-05T13:56:49.907Z,6.23
2018-07-05T13:59:30.245Z,6.27
2018-07-05T14:02:10.620Z,5.10
2018-07-05T14:04:50.898Z,6.70
2018-07-05T14:07:31.239Z,6.60
2018-07-05T14:10:11.805Z,6.63
2018-07-05T14:12:52.370Z,8.50
2018-07-05T14:15:32.769Z,5.73
2018-07-05T14:18:13.245Z,8.47
2018-07-05T14:20:53.576Z,5.30
2018-07-05T14:23:34.113Z,6.07
2018-07-05T14:26:14.639Z,5.80
2018-07-05T14:28:54.917Z,6.93
2018-07-05T14:31:35.358Z,10.33
2018-07-05T14:34:15.774Z,4.97
2018-07-05T14:36:56.146Z,6.30
2018-07-05T14:39:36.497Z,7.43
2018-07-05T14:42:16.839Z,4.80
2018-07-05T14:44:57.467Z,5.17
2018-07-05T14:47:37.889Z,8.17
2018-07-05T14:50:18.092Z,8.43
2018-07-05T14:52:52.365Z,8.67
2018-07-05T14:55:32.805Z,4.83
2018-07-05T14:58:13.346Z,6.97
2018-07-05T15:00:53.589Z,3.33
2018-07-05T15:03:34.037Z,6.70
2018-07-05T15:06:14.543Z,4.23
2018-07-05T15:08:55.023Z,4.90
2018-07-05T15:11:41.170Z,5.77
2018-07-05T15:14:21.553Z,4.80
2018-07-05T15:17:01.924Z,5.83
2018-07-05T15:19:42.321Z,6.13
2018-07-05T15:22:22.645Z,5.23
2018-07-05T15:25:03.229Z,7.17
2018-07-05T15:27:43.805Z,4.90
2018-07-05T15:30:24.192Z,4.67
2018-07-05T15:33:04.580Z,10.13
2018-07-05T15:35:45.083Z,6.60
2018-07-05T15:38:25.418Z,6.97
2018-07-05T15:41:05.698Z,6.00
2018-07-05T15:43:46.248Z,5.67
2018-07-05T15:46:26.806Z,8.43
2018-07-05T15:49:07.221Z,7.27
2018-07-05T15:51:47.634Z,5.40
2018-07-05T15:54:27.943Z,4.23
2018-07-05T15:57:08.278Z,4.37
2018-07-05T15:59:48.784Z,6.03
2018-07-05T16:02:29.194Z,6.93
2018-07-05T16:05:09.638Z,2.90
2018-07-05T16:07:50.087Z,3.37
2018-07-05T16:10:30.410Z,4.73
2018-07-05T16:13:10.676Z,3.23
2018-07-05T16:15:50.835Z,5.43
2018-07-05T16:18:31.284Z,2.63
2018-07-05T16:21:11.599Z,2.63
2018-07-05T16:23:51.992Z,5.20
2018-07-05T16:26:32.394Z,4.90
2018-07-05T16:29:12.870Z,3.20
2018-07-05T16:31:53.270Z,7.73
2018-07-05T16:34:33.798Z,3.93
2018-07-05T16:37:14.198Z,5.03
2018-07-05T16:39:54.493Z,2.43
2018-07-05T16:42:34.841Z,2.00
2018-07-05T16:45:09.154Z,4.57
2018-07-05T16:47:49.541Z,3.40
2018-07-05T16:50:29.975Z,3.53
2018-07-05T16:53:10.309Z,3.50
2018-07-05T16:55:50.545Z,3.33
2018-07-05T16:58:30.907Z,3.50
2018-07-05T17:01:11.447Z,3.57
2018-07-05T17:03:52.103Z,1.90
2018-07-05T17:06:32.685Z,3.13
2018-07-05T17:09:13.809Z,6.20
2018-07-05T17:11:54.399Z,1.63
2018-07-05T17:14:34.917Z,1.70
2018-07-05T17:17:15.417Z,2.17
2018-07-05T17:19:56.369Z,2.57
2018-07-05T17:22:37.012Z,4.80
2018-07-05T17:25:17.378Z,3.20
2018-07-05T17:27:57.718Z,3.47
2018-07-05T17:30:37.920Z,2.73
2018-07-05T17:33:18.106Z,3.83
2018-07-05T17:35:58.400Z,2.13
2018-07-05T17:38:38.652Z,4.40
2018-07-05T17:41:19.136Z,2.73
2018-07-05T17:43:59.685Z,3.17
2018-07-05T17:46:40.083Z,3.37
2018-07-05T17:49:20.419Z,3.60
2018-07-05T17:52:01.158Z,4.27
2018-07-05T17:54:41.549Z,4.03
2018-07-05T17:57:22.010Z,3.23
2018-07-05T18:00:02.649Z,2.53
2018-07-05T18:02:42.978Z,2.67
2018-07-05T18:05:23.546Z,3.63
2018-07-05T18:08:04.236Z,4.53
2018-07-05T18:10:44.726Z,3.17
2018-07-05T18:13:24.962Z,4.47
2018-07-05T18:16:05.520Z,4.60
2018-07-05T18:18:46.009Z,2.87
2018-07-05T18:21:26.444Z,2.90
2018-07-05T18:24:06.874Z,4.77
2018-07-05T18:26:47.364Z,3.20
2018-07-05T18:29:27.738Z,3.30
2018-07-05T18:32:07.878Z,2.70
2018-07-05T18:34:48.260Z,2.63
2018-07-05T18:37:28.778Z,3.60
2018-07-05T18:40:09.382Z,3.23
2018-07-05T18:42:49.837Z,2.67
2018-07-05T18:45:30.330Z,5.23
2018-07-05T18:48:10.671Z,3.77
2018-07-05T18:50:50.972Z,1.73
2018-07-05T18:53:31.156Z,4.70
2018-07-05T18:56:11.774Z,3.00
2018-07-05T18:58:52.301Z,4.43
2018-07-05T19:01:32.670Z,1.80
2018-07-05T19:04:13.124Z,6.80
2018-07-05T19:06:53.606Z,3.63
2018-07-05T19:09:33.937Z,2.50
2018-07-05T19:12:14.414Z,2.10
2018-07-05T19:14:54.771Z,1.47
2018-07-05T19:17:35.218Z,2.97
2018-07-05T19:20:16.515Z,6.37
2018-07-05T19:22:57.120Z,3.07
2018-07-05T19:25:37.522Z,1.47
2018-07-05T19:28:17.825Z,2.33
2018-07-05T19:30:58.279Z,2.53
2018-07-05T19:33:32.512Z,1.90
2018-07-05T19:36:12.715Z,1.43
2018-07-05T19:38:53.128Z,2.93
2018-07-05T19:41:33.458Z,2.27
2018-07-05T19:44:14.008Z,4.87
2018-07-05T19:46:54.470Z,2.47
2018-07-05T19:49:34.723Z,2.20
2018-07-05T19:52:14.993Z,4.60
2018-07-05T19:54:55.568Z,2.37
2018-07-05T19:57:35.825Z,2.30
2018-07-05T20:00:16.092Z,1.70
2018-07-05T20:02:56.587Z,1.50
2018-07-05T20:05:36.911Z,1.37
2018-07-05T20:08:17.533Z,2.87
2018-07-05T20:10:57.941Z,4.47
2018-07-05T20:13:39.100Z,1.43
2018-07-05T20:16:19.537Z,6.17
2018-07-05T20:19:00.250Z,3.23
2018-07-05T20:21:40.759Z,4.07
2018-07-05T20:24:21.059Z,1.57
2018-07-05T20:27:01.385Z,1.80
2018-07-05T20:29:35.723Z,3.73
2018-07-05T20:32:16.211Z,1.60
2018-07-05T20:34:56.568Z,1.90
2018-07-05T20:37:37.147Z,2.33
2018-07-05T20:40:17.589Z,1.43
2018-07-05T20:42:57.968Z,1.87
2018-07-05T20:45:39.126Z,3.13
2018-07-05T20:48:19.550Z,2.73
2018-07-05T20:51:00.058Z,4.80
2018-07-05T20:53:46.162Z,1.63
2018-07-05T20:56:26.515Z,2.60
2018-07-05T20:59:06.832Z,3.17
2018-07-05T21:04:43.950Z,2.57
2018-07-05T21:07:24.497Z,1.63
2018-07-05T21:53:58.590Z,5.03
2018-07-05T21:56:39.119Z,2.57
2018-07-05T21:59:19.622Z,3.93
2018-07-05T22:01:54.096Z,3.03
2018-07-05T22:04:34.262Z,2.53
2018-07-05T22:07:14.518Z,3.67
2018-07-05T22:09:54.896Z,2.77
2018-07-05T22:12:35.210Z,3.20
2018-07-05T22:15:15.486Z,3.90
2018-07-05T22:18:01.312Z,4.27
2018-07-05T22:20:47.247Z,3.67
2018-07-05T22:23:33.042Z,3.83
2018-07-05T22:26:18.790Z,2.43
2018-07-05T22:29:04.664Z,2.87
2018-07-05T22:31:44.921Z,4.50
2018-07-05T22:34:25.551Z,3.73
2018-07-05T22:37:06.024Z,2.50
2018-07-05T22:39:46.335Z,3.57
2018-07-05T22:42:20.637Z,4.23
2018-07-05T22:45:01.037Z,5.97
2018-07-05T22:47:41.271Z,4.70
2018-07-05T22:50:21.665Z,3.13
2018-07-05T22:53:02.097Z,3.30
2018-07-05T22:55:42.330Z,3.23
2018-07-05T22:58:22.847Z,5.60
2018-07-05T23:01:03.450Z,5.53
2018-07-05T23:03:43.573Z,3.90
2018-07-05T23:06:24.041Z,5.80
2018-07-05T23:09:04.768Z,4.67
2018-07-05T23:11:45.385Z,6.83
2018-07-05T23:14:25.717Z,4.37
2018-07-05T23:17:06.270Z,4.70
2018-07-05T23:19:47.447Z,6.40
2018-07-05T23:22:27.777Z,6.07
2018-07-05T23:25:02.089Z,4.50
2018-07-05T23:27:42.473Z,4.73
2018-07-05T23:30:22.792Z,7.33
2018-07-05T23:33:03.211Z,4.80
2018-07-05T23:35:43.849Z,5.77
2018-07-05T23:38:24.310Z,5.27
2018-07-05T23:41:04.760Z,4.63
2018-07-05T23:43:45.171Z,5.33
2018-07-05T23:46:25.720Z,5.13
2018-07-05T23:49:06.289Z,4.57
2018-07-05T23:51:46.635Z,7.53
2018-07-05T23:54:26.991Z,5.47
2018-07-05T23:57:07.350Z,5.07
2018-07-05T23:59:47.769Z,5.80
